Time;durP1;ratioP1;P1;durP2;ratioP2;P2;SDS_P1;SDS_P2;PMS_P1;PMS_P2;Temp;Humidity;BMP_temperature;BMP_pressure;BME280_temperature;BME280_humidity;BME280_pressure;Samples;Min_cycle;Max_cycle;Signal;HPM_P1;HPM_P2
2023/10/10 00:04:55;;;;;;;10.50;5.00;;;;;;;15.29;53.02;97841.22;10451765;28;20390;-48
2023/10/10 00:09:56;;;;;;;14.85;4.50;;;;;;;15.43;53.65;97865.34;10473538;28;20109;-48
2023/10/10 00:14:57;;;;;;;14.75;4.90;;;;;;;15.38;53.83;97876.81;10492064;28;20067;-48
2023/10/10 00:19:58;;;;;;;12.93;4.47;;;;;;;15.37;53.46;97881.19;10492414;28;20059;-50
2023/10/10 00:24:56;;;;;;;11.85;4.97;;;;;;;15.41;53.72;97895.94;10490708;28;20055;-49
2023/10/10 00:29:58;;;;;;;;;;;;;;;15.44;53.74;97895.00;10488931;28;21305;-50
2023/10/10 00:34:59;;;;;;;16.63;4.70;;;;;;;15.46;53.74;97891.47;10488175;28;20421;-50
2023/10/10 00:40:02;;;;;;;12.55;3.80;;;;;;;15.21;54.21;97838.75;10488103;28;20483;-48
2023/10/10 00:45:04;;;;;;;15.73;4.50;;;;;;;15.61;54.36;97881.59;10488338;28;20055;-51
2023/10/10 00:50:03;;;;;;;13.13;4.78;;;;;;;15.68;53.87;97878.84;10487968;28;20051;-51
2023/10/10 00:55:04;;;;;;;15.10;5.40;;;;;;;15.76;54.18;97883.06;10485428;28;20146;-48
2023/10/10 01:00:09;;;;;;;15.43;5.88;;;;;;;15.61;54.36;97855.44;10445578;28;20056;-49
2023/10/10 01:05:12;;;;;;;12.30;4.68;;;;;;;15.73;54.17;97883.97;10446343;28;20575;-49
2023/10/10 01:10:11;;;;;;;14.02;6.25;;;;;;;15.78;54.18;97886.50;10452881;28;20067;-48
2023/10/10 01:15:15;;;;;;;9.30;3.40;;;;;;;15.83;53.73;97876.84;10493045;28;20067;-51
2023/10/10 01:20:34;;;;;;;10.32;4.32;;;;;;;15.81;53.83;97869.03;10494602;28;20055;-50
2023/10/10 01:30:48;;;;;;;;;;;;;;;15.93;52.87;97861.81;10453300;28;20040;-48
2023/10/10 01:35:49;;;;;;;8.32;2.92;;;;;;;16.01;52.50;97879.09;10452867;28;20012;-51
2023/10/10 01:40:48;;;;;;;10.50;3.45;;;;;;;16.04;51.84;97884.28;10452663;28;20059;-51
2023/10/10 01:46:08;;;;;;;13.23;4.25;;;;;;;16.12;51.58;97880.63;10452886;28;20051;-49
2023/10/10 01:51:08;;;;;;;14.73;4.00;;;;;;;16.17;51.59;97881.38;10452021;28;20071;-49
2023/10/10 01:56:07;;;;;;;8.82;3.33;;;;;;;16.05;51.27;97867.66;10463933;28;20078;-50
2023/10/10 02:01:15;;;;;;;9.48;3.42;;;;;;;15.92;51.45;97837.41;10493874;28;20073;-51
2023/10/10 02:06:26;;;;;;;9.32;3.22;;;;;;;16.20;51.51;97863.00;10492774;28;20044;-51
2023/10/10 02:11:26;;;;;;;10.43;3.58;;;;;;;16.19;51.70;97866.50;10492963;28;20111;-49
2023/10/10 02:16:31;;;;;;;11.98;3.80;;;;;;;15.98;51.79;97826.81;10493318;28;20316;-50
2023/10/10 02:21:43;;;;;;;9.02;3.00;;;;;;;16.22;52.06;97877.78;10491437;28;20509;-48
2023/10/10 02:26:42;;;;;;;8.85;3.03;;;;;;;16.00;52.37;97866.91;10495756;28;20470;-48
2023/10/10 02:31:44;;;;;;;12.07;4.20;;;;;;;15.90;52.40;97840.94;10496076;28;20078;-48
2023/10/10 02:36:43;;;;;;;10.52;4.32;;;;;;;16.08;52.56;97885.91;10495393;28;20059;-48
2023/10/10 02:41:48;;;;;;;16.38;3.97;;;;;;;16.09;53.04;97877.19;10495363;28;20051;-49
2023/10/10 02:46:47;;;;;;;11.25;4.63;;;;;;;16.06;53.20;97869.38;10493971;28;20112;-48
2023/10/10 02:51:48;;;;;;;;;;;;;;;16.04;53.52;97868.56;10494986;28;20084;-49
2023/10/10 02:56:48;;;;;;;13.32;5.55;;;;;;;15.91;54.53;97885.41;10476347;28;19956;-50
2023/10/10 03:06:52;;;;;;;14.27;4.65;;;;;;;15.63;54.99;97878.06;10452591;28;20063;-49
2023/10/10 03:12:03;;;;;;;;;;;;;;;15.65;55.16;97902.44;10452861;28;20032;-49
2023/10/10 03:17:31;;;;;;;14.60;5.10;;;;;;;15.70;55.12;97893.66;10490870;28;19966;-51
2023/10/10 03:38:26;;;;;;;14.80;6.00;;;;;;;15.73;54.96;97883.13;10490336;28;20067;-50
2023/10/10 05:24:00;;;;;;;14.50;7.43;;;;;;;15.39;58.37;97972.69;10456494;28;20502;-50
2023/10/10 05:29:00;;;;;;;20.95;7.55;;;;;;;15.39;58.03;97962.22;10486157;28;20039;-50
2023/10/10 05:34:02;;;;;;;17.08;7.78;;;;;;;15.68;58.42;97985.25;10482117;27;20071;-51
2023/10/10 05:39:01;;;;;;;26.85;11.40;;;;;;;15.09;58.13;97870.34;10474466;28;20123;-49
2023/10/10 05:44:02;;;;;;;;;;;;;;;15.92;57.82;97997.03;10483081;28;20036;-51
2023/10/10 05:49:01;;;;;;;29.95;11.82;;;;;;;16.09;57.91;97992.38;10458451;28;20354;-51
2023/10/10 05:54:00;;;;;;;32.97;9.77;;;;;;;15.97;57.95;97952.47;10482225;28;20059;-50
2023/10/10 05:58:58;;;;;;;;;;;;;;;16.33;58.04;97997.16;10463021;28;20066;-48
2023/10/10 06:03:57;;;;;;;38.05;9.35;;;;;;;16.45;57.50;97994.28;10456858;28;20028;-50
2023/10/10 06:09:04;;;;;;;;;;;;;;;16.57;57.32;97998.41;10457097;28;20047;-51
2023/10/10 06:14:04;;;;;;;26.70;8.00;;;;;;;16.68;57.08;97996.41;10492626;28;19966;-50
2023/10/10 06:19:03;;;;;;;22.23;7.20;;;;;;;16.34;56.79;97923.78;10460608;28;20064;-51
2023/10/10 06:24:03;;;;;;;19.65;7.30;;;;;;;16.77;56.42;97974.38;10492498;28;20059;-48
2023/10/10 06:29:02;;;;;;;19.48;7.43;;;;;;;17.13;55.37;98014.66;10455831;28;20466;-49
2023/10/10 06:34:19;;;;;;;22.00;8.10;;;;;;;17.20;55.10;98024.09;10456763;28;20545;-50
2023/10/10 06:39:18;;;;;;;18.13;7.13;;;;;;;17.33;55.15;98032.53;10469888;28;20070;-52
2023/10/10 06:44:31;;;;;;;16.95;7.18;;;;;;;17.45;54.78;98026.13;10454813;28;20063;-48
2023/10/10 06:49:43;;;;;;;16.27;6.88;;;;;;;17.54;54.22;98032.03;10452194;28;20095;-50
2023/10/10 06:54:44;;;;;;;17.85;8.07;;;;;;;17.59;53.52;98039.81;10473803;28;20075;-50
2023/10/10 06:59:43;;;;;;;17.75;6.45;;;;;;;17.54;53.45;98025.91;10453042;28;20119;-52
2023/10/10 07:04:42;;;;;;;15.23;6.32;;;;;;;17.69;52.44;98046.53;10452873;28;20060;-49
2023/10/10 07:09:42;;;;;;;12.82;5.97;;;;;;;17.69;52.24;98051.78;10463522;28;20103;-52
2023/10/10 07:14:46;;;;;;;14.88;6.47;;;;;;;17.46;52.43;98027.88;10474882;28;20115;-47
2023/10/10 07:25:07;;;;;;;24.40;7.97;;;;;;;17.76;53.45;98066.50;10478051;28;20485;-52
2023/10/10 07:30:16;;;;;;;26.98;7.25;;;;;;;17.73;53.23;98061.31;10470922;28;20131;-49
2023/10/10 07:35:17;;;;;;;26.08;7.90;;;;;;;17.86;53.40;98079.41;10449983;28;20059;-51
2023/10/10 07:40:20;;;;;;;22.58;8.50;;;;;;;17.91;53.09;98080.16;10465941;28;20115;-50
2023/10/10 07:45:33;;;;;;;18.75;7.47;;;;;;;17.80;53.22;98058.53;10467619;28;20105;-50
2023/10/10 07:50:35;;;;;;;21.90;8.02;;;;;;;17.60;53.64;98038.88;10481338;28;20812;-52
2023/10/10 07:55:52;;;;;;;21.60;7.75;;;;;;;17.97;53.39;98088.72;10466605;28;20144;-52
2023/10/10 08:00:52;;;;;;;17.23;6.60;;;;;;;18.03;53.60;98095.59;10454339;28;20056;-49
2023/10/10 08:05:51;;;;;;;15.43;6.88;;;;;;;18.17;54.12;98100.47;10482842;28;20067;-51
2023/10/10 08:10:50;;;;;;;17.05;6.65;;;;;;;18.33;53.69;98106.19;10480099;28;20024;-50
2023/10/10 08:25:53;;;;;;;14.40;5.32;;;;;;;18.48;53.30;98097.91;10463620;28;20024;-49
2023/10/10 08:30:55;;;;;;;14.60;6.05;;;;;;;18.76;52.67;98107.66;10456648;28;20102;-51
2023/10/10 08:35:54;;;;;;;15.15;5.28;;;;;;;18.91;52.65;98115.13;10464016;28;20068;-51
2023/10/10 08:40:57;;;;;;;20.58;5.68;;;;;;;19.01;52.65;98094.69;10459665;28;20028;-52
2023/10/10 08:45:58;;;;;;;18.25;5.90;;;;;;;19.29;52.79;98104.38;10459238;28;20052;-50
2023/10/10 08:51:03;;;;;;;11.63;5.45;;;;;;;19.40;52.63;98089.13;10462242;28;20056;-51
2023/10/10 08:56:03;;;;;;;16.33;5.97;;;;;;;19.56;52.16;98081.66;10464346;28;20469;-49
2023/10/10 09:01:02;;;;;;;13.52;5.15;;;;;;;19.84;51.69;98108.81;10458966;28;20106;-49
2023/10/10 09:06:19;;;;;;;17.35;6.07;;;;;;;19.51;51.26;98057.19;10456526;28;20074;-51
2023/10/10 09:11:23;;;;;;;12.05;4.90;;;;;;;19.85;51.42;98115.78;10472965;28;20151;-49
2023/10/10 09:16:41;;;;;;;12.25;4.78;;;;;;;19.80;51.70;98124.75;10471906;28;20696;-51
2023/10/10 09:21:56;;;;;;;13.00;5.97;;;;;;;19.80;51.62;98117.69;10460901;28;20070;-50
2023/10/10 09:26:59;;;;;;;11.73;4.88;;;;;;;19.87;51.16;98119.22;10482809;28;20103;-49
2023/10/10 09:31:59;;;;;;;11.82;5.30;;;;;;;20.09;50.99;98113.25;10496015;28;20078;-50
2023/10/10 09:36:59;;;;;;;10.77;5.10;;;;;;;20.48;49.47;98120.72;10495748;28;20118;-50
2023/10/10 10:09:05;;;;;;;12.25;5.35;;;;;;;19.65;51.13;98123.47;10481387;28;20488;-51
2023/10/10 10:14:17;;;;;;;12.13;5.47;;;;;;;18.80;55.00;98131.19;10453650;28;20047;-50
2023/10/10 10:19:20;;;;;;;12.05;5.07;;;;;;;18.24;57.67;98135.34;10492152;28;20489;-50
2023/10/10 10:24:29;;;;;;;9.75;5.45;;;;;;;17.87;60.32;98139.75;10496526;28;20134;-50
2023/10/10 10:29:36;;;;;;;13.45;4.88;;;;;;;17.55;62.38;98124.72;10498151;28;20059;-50
2023/10/10 10:34:37;;;;;;;9.60;4.35;;;;;;;17.54;62.81;98130.88;10497947;28;20082;-51
2023/10/10 10:39:37;;;;;;;8.10;4.10;;;;;;;17.49;63.51;98130.09;10493643;28;20051;-48
2023/10/10 10:44:44;;;;;;;10.60;4.95;;;;;;;17.48;64.61;98123.16;10477535;28;20070;-50
2023/10/10 10:49:54;;;;;;;8.70;4.45;;;;;;;17.50;64.61;98122.22;10454195;28;20474;-49
2023/10/10 10:55:18;;;;;;;10.35;4.43;;;;;;;17.60;64.59;98108.88;10494831;28;20067;-49
2023/10/10 11:00:41;;;;;;;9.57;4.40;;;;;;;17.85;64.50;98124.94;10495435;28;20058;-48
2023/10/10 11:05:40;;;;;;;9.63;4.13;;;;;;;17.92;64.71;98108.16;10495853;27;20478;-50
2023/10/10 11:10:45;;;;;;;16.80;3.95;;;;;;;17.92;64.20;98089.75;10496443;28;20504;-51
2023/10/10 11:15:46;;;;;;;14.80;3.92;;;;;;;18.15;63.83;98113.69;10487019;28;20056;-50
2023/10/10 11:20:55;;;;;;;10.80;4.15;;;;;;;18.12;62.70;98087.47;10454408;28;20482;-51
2023/10/10 11:26:00;;;;;;;7.40;4.20;;;;;;;18.31;62.10;98110.63;10493302;28;20054;-50
2023/10/10 11:31:06;;;;;;;8.25;4.20;;;;;;;18.36;61.42;98087.72;10493021;28;20551;-49
2023/10/10 11:36:51;;;;;;;8.65;4.22;;;;;;;18.82;60.54;98097.00;10490145;28;20059;-51
2023/10/10 11:41:45;;;;;;;9.17;4.07;;;;;;;19.35;59.65;98094.53;10450491;28;20082;-50
2023/10/10 11:46:47;;;;;;;10.20;4.68;;;;;;;19.83;59.00;98093.03;10450974;28;20678;-50
2023/10/10 11:51:46;;;;;;;8.70;4.00;;;;;;;20.11;57.66;98086.84;10491960;28;20074;-49
2023/10/10 11:56:46;;;;;;;11.23;4.25;;;;;;;20.19;56.64;98087.44;10473963;28;20497;-52
2023/10/10 12:01:49;;;;;;;8.10;3.45;;;;;;;20.04;55.85;98089.69;10450509;28;20569;-53
2023/10/10 12:06:48;;;;;;;9.40;3.70;;;;;;;19.74;55.01;98053.84;10477149;28;20116;-50
2023/10/10 12:11:47;;;;;;;11.68;4.10;;;;;;;19.85;56.72;98084.16;10490948;28;20036;-50
2023/10/10 12:16:50;;;;;;;14.95;6.55;;;;;;;19.63;58.27;98077.91;10463944;28;20058;-51
2023/10/10 12:21:50;;;;;;;16.88;9.50;;;;;;;19.38;59.63;98085.69;10489569;28;20059;-52
2023/10/10 12:26:54;;;;;;;15.38;8.30;;;;;;;19.23;61.31;98081.75;10488574;28;20062;-51
2023/10/10 12:31:55;;;;;;;13.18;6.93;;;;;;;19.23;62.22;98079.13;10488324;28;20070;-49
2023/10/10 12:36:59;;;;;;;13.40;7.30;;;;;;;19.13;63.13;98075.91;10488842;28;20078;-52
2023/10/10 12:41:59;;;;;;;15.23;8.32;;;;;;;18.90;64.43;98079.25;10489950;28;20118;-51
2023/10/10 12:46:59;;;;;;;13.40;6.78;;;;;;;18.87;63.54;98075.81;10490723;28;20074;-53
2023/10/10 12:51:58;;;;;;;12.15;5.57;;;;;;;18.85;62.80;98082.88;10490754;28;20484;-52
2023/10/10 12:57:02;;;;;;;11.02;5.35;;;;;;;18.86;62.52;98064.44;10485039;28;20085;-51
2023/10/10 13:02:03;;;;;;;10.50;5.10;;;;;;;19.01;62.60;98078.91;10490831;28;20114;-49
2023/10/10 13:07:03;;;;;;;8.55;4.93;;;;;;;19.14;62.41;98079.41;10461137;28;20059;-52
2023/10/10 13:12:02;;;;;;;9.05;4.82;;;;;;;19.31;62.01;98089.41;10456370;28;20055;-52
2023/10/10 13:17:28;;;;;;;13.48;5.55;;;;;;;19.47;61.68;98069.59;10455626;28;20062;-51
2023/10/10 13:22:29;;;;;;;12.43;4.63;;;;;;;19.92;60.77;98074.28;10455029;28;20532;-49
2023/10/10 13:27:28;;;;;;;9.98;4.80;;;;;;;20.07;59.92;98076.44;10458025;28;20051;-52
2023/10/10 13:32:27;;;;;;;9.90;4.72;;;;;;;20.14;59.68;98063.91;10458160;28;20051;-50
2023/10/10 13:37:25;;;;;;;13.70;5.45;;;;;;;20.22;59.29;98067.13;10482122;28;20437;-50
2023/10/10 13:42:24;;;;;;;10.55;4.60;;;;;;;20.26;59.18;98060.84;10500133;28;20067;-51
2023/10/10 13:47:25;;;;;;;10.77;4.28;;;;;;;20.45;58.75;98058.44;10499760;28;20011;-49
2023/10/10 13:52:23;;;;;;;7.13;3.90;;;;;;;20.62;58.20;98054.31;10499928;28;20051;-50
2023/10/10 13:57:22;;;;;;;12.95;4.43;;;;;;;20.59;57.73;98039.47;10476252;28;20112;-48
2023/10/10 14:02:25;;;;;;;9.25;3.72;;;;;;;20.70;57.52;98050.50;10486139;28;20115;-48
2023/10/10 14:07:25;;;;;;;8.85;4.25;;;;;;;20.60;57.01;98022.72;10498200;28;20524;-49
2023/10/10 14:12:24;;;;;;;7.47;4.30;;;;;;;20.67;56.74;98045.31;10497933;28;20073;-50
2023/10/10 14:17:23;;;;;;;11.20;5.28;;;;;;;20.48;57.94;98049.56;10495138;28;20066;-50
2023/10/10 14:22:25;;;;;;;10.90;6.22;;;;;;;20.19;58.25;98040.88;10478077;28;20024;-50
2023/10/10 14:27:25;;;;;;;12.65;6.28;;;;;;;20.05;59.14;98065.06;10491825;28;20059;-50
2023/10/10 14:32:27;;;;;;;10.23;6.10;;;;;;;19.81;59.76;98068.53;10491018;28;20124;-49
2023/10/10 14:37:27;;;;;;;9.10;4.72;;;;;;;19.78;60.07;98066.00;10492684;28;20086;-51
2023/10/10 14:42:27;;;;;;;10.70;5.07;;;;;;;19.75;59.84;98077.50;10491422;28;20055;-51
2023/10/10 14:47:27;;;;;;;9.02;4.70;;;;;;;19.62;60.43;98082.28;10491455;28;20067;-47
2023/10/10 14:52:34;;;;;;;11.32;5.53;;;;;;;19.39;60.92;98085.63;10494055;28;20138;-50
2023/10/10 14:57:34;;;;;;;10.45;4.55;;;;;;;19.29;61.49;98099.13;10470407;28;20119;-49
2023/10/10 15:02:35;;;;;;;9.85;4.90;;;;;;;19.08;62.13;98074.31;10487435;28;20102;-48
2023/10/10 15:07:34;;;;;;;6.18;3.65;;;;;;;19.14;61.49;98097.81;10449832;28;20063;-49
2023/10/10 15:12:33;;;;;;;10.75;5.03;;;;;;;19.17;61.42;98110.88;10450548;28;20099;-50
2023/10/10 15:17:32;;;;;;;10.68;5.20;;;;;;;19.16;61.52;98114.44;10450608;28;20107;-50
2023/10/10 15:22:31;;;;;;;10.25;5.30;;;;;;;19.05;62.27;98113.88;10451226;28;20055;-49
2023/10/10 15:27:30;;;;;;;7.68;4.55;;;;;;;18.90;62.78;98123.94;10448025;28;20028;-52
2023/10/10 15:32:38;;;;;;;7.45;4.82;;;;;;;18.83;62.96;98127.66;10449048;28;20676;-52
2023/10/10 15:37:42;;;;;;;12.30;6.63;;;;;;;18.69;64.20;98135.03;10483703;28;20452;-51
2023/10/10 15:42:41;;;;;;;11.65;6.40;;;;;;;18.54;64.85;98136.28;10452381;28;20075;-52
2023/10/10 15:47:40;;;;;;;14.10;6.68;;;;;;;18.15;65.75;98097.03;10450592;28;20030;-52
2023/10/10 15:52:39;;;;;;;11.25;6.50;;;;;;;18.12;66.58;98137.38;10450639;28;20139;-52
2023/10/10 15:57:38;;;;;;;11.27;6.07;;;;;;;17.96;67.08;98143.91;10472407;28;20070;-50
2023/10/10 16:02:39;;;;;;;12.95;6.82;;;;;;;17.64;67.61;98107.91;10488658;28;20126;-50
2023/10/10 16:07:38;;;;;;;11.95;6.38;;;;;;;17.75;68.32;98159.25;10488775;28;20318;-49
2023/10/10 16:12:38;;;;;;;14.45;7.47;;;;;;;17.49;68.89;98138.84;10487713;28;20067;-49
2023/10/10 16:17:37;;;;;;;17.60;7.95;;;;;;;17.48;68.85;98147.63;10488840;28;20063;-49
2023/10/10 16:22:36;;;;;;;10.77;6.53;;;;;;;17.55;69.41;98171.97;10488644;28;20421;-50
2023/10/10 16:27:36;;;;;;;;;;;;;;;17.58;69.77;98184.16;10489712;28;20432;-51
2023/10/10 16:32:37;;;;;;;12.27;7.85;;;;;;;17.55;69.99;98182.47;10488208;28;19992;-47
2023/10/10 16:37:36;;;;;;;16.02;9.80;;;;;;;17.44;71.00;98192.31;10489568;28;20164;-50
2023/10/10 16:42:35;;;;;;;20.58;9.77;;;;;;;16.90;72.72;98170.69;10495286;28;20074;-49
2023/10/10 16:47:36;;;;;;;21.25;10.68;;;;;;;17.16;72.01;98195.53;10496493;28;20078;-50
2023/10/10 16:52:36;;;;;;;18.52;9.88;;;;;;;17.01;72.78;98198.47;10496575;28;20055;-50
2023/10/10 16:57:36;;;;;;;21.50;10.32;;;;;;;16.98;72.68;98211.63;10472042;28;20067;-50
2023/10/10 17:02:38;;;;;;;16.48;9.57;;;;;;;16.81;73.10;98201.47;10494819;28;20059;-49
2023/10/10 17:07:40;;;;;;;19.27;11.20;;;;;;;16.60;73.39;98184.34;10495472;28;20114;-48
2023/10/10 17:12:42;;;;;;;18.70;12.43;;;;;;;16.62;73.59;98201.75;10495900;28;20520;-47
2023/10/10 17:17:41;;;;;;;26.25;15.38;;;;;;;16.47;74.38;98210.78;10495398;28;20629;-50
2023/10/10 17:22:40;;;;;;;25.48;16.60;;;;;;;16.31;74.92;98214.53;10494918;28;20504;-48
2023/10/10 17:27:40;;;;;;;;;;;;;;;16.20;74.88;98225.19;10453996;28;20127;-50
2023/10/10 17:32:39;;;;;;;21.77;11.05;;;;;;;16.02;74.55;98221.13;10494793;28;20029;-50
2023/10/10 17:37:38;;;;;;;14.52;10.13;;;;;;;15.93;74.38;98208.16;10494589;28;20146;-50
2023/10/10 17:42:37;;;;;;;;;;;;;;;15.84;74.00;98224.88;10427605;28;20051;-48
2023/10/10 17:47:36;;;;;;;23.50;15.37;;;;;;;15.74;73.88;98227.59;10410529;28;20276;-48
2023/10/10 17:52:35;;;;;;;22.23;15.02;;;;;;;15.60;73.90;98228.66;10410650;28;20108;-48
2023/10/10 17:57:34;;;;;;;;;;;;;;;15.40;74.91;98242.00;10386470;28;20123;-49
2023/10/10 18:02:33;;;;;;;19.43;12.40;;;;;;;15.17;75.96;98218.75;10368764;28;19913;-48
2023/10/10 18:07:34;;;;;;;;;;;;;;;15.14;76.24;98233.63;10369488;28;20028;-50
2023/10/10 18:12:34;;;;;;;22.95;13.23;;;;;;;15.00;76.98;98250.31;10409654;28;19967;-51
2023/10/10 18:17:34;;;;;;;23.50;12.95;;;;;;;14.86;78.00;98244.38;10408891;28;20072;-50
2023/10/10 18:22:33;;;;;;;21.17;13.32;;;;;;;14.71;79.13;98254.94;10410029;28;20111;-49
2023/10/10 18:27:31;;;;;;;;;;;;;;;14.48;80.85;98255.16;10410935;28;20139;-47
2023/10/10 18:32:32;;;;;;;22.52;11.32;;;;;;;14.30;80.13;98237.88;10388106;28;19956;-51
2023/10/10 18:37:31;;;;;;;18.83;11.68;;;;;;;14.34;80.26;98261.34;10375409;28;20075;-50
2023/10/10 18:42:30;;;;;;;;;;;;;;;14.20;81.47;98271.03;10371426;28;20036;-49
2023/10/10 18:47:31;;;;;;;14.65;8.20;;;;;;;14.08;81.77;98268.53;10370587;28;19952;-49
2023/10/10 18:52:30;;;;;;;13.73;7.40;;;;;;;13.64;81.47;98209.66;10370895;28;20079;-49
2023/10/10 18:57:29;;;;;;;15.15;7.35;;;;;;;13.70;82.11;98287.84;10393623;28;20060;-49
2023/10/10 19:02:28;;;;;;;11.95;6.90;;;;;;;13.62;81.96;98289.63;10380808;28;20496;-49
2023/10/10 19:07:27;;;;;;;;;;;;;;;13.64;80.89;98299.19;10370411;28;20448;-50
2023/10/10 19:12:26;;;;;;;11.13;7.43;;;;;;;13.31;81.42;98280.16;10370191;28;20277;-51
2023/10/10 19:17:27;;;;;;;10.85;6.90;;;;;;;13.05;82.73;98277.66;10369415;28;20060;-51
2023/10/10 19:22:26;;;;;;;10.48;6.80;;;;;;;13.39;81.94;98324.44;10369421;28;20060;-49
2023/10/10 19:27:26;;;;;;;;;;;;;;;13.42;81.75;98334.88;10365903;28;20033;-50
2023/10/10 19:32:25;;;;;;;;;;;;;;;13.44;81.45;98333.13;10364096;28;19974;-47
2023/10/10 19:37:25;;;;;;;15.48;7.57;;;;;;;13.51;81.28;98344.41;10365338;28;19960;-51
2023/10/10 19:42:26;;;;;;;11.70;7.13;;;;;;;13.53;80.85;98335.69;10365227;28;20139;-49
2023/10/10 19:47:26;;;;;;;14.10;8.38;;;;;;;13.51;81.19;98340.03;10363572;28;20545;-50
2023/10/10 19:52:25;;;;;;;13.95;9.40;;;;;;;13.40;80.87;98318.38;10365184;28;20064;-50
2023/10/10 19:57:25;;;;;;;19.80;11.90;;;;;;;13.27;80.67;98308.84;10387850;28;20064;-49
2023/10/10 20:02:24;;;;;;;18.85;12.98;;;;;;;13.39;80.46;98363.56;10406205;28;20060;-50
2023/10/10 20:07:23;;;;;;;;;;;;;;;13.33;80.66;98366.19;10404595;28;20133;-50
2023/10/10 20:12:21;;;;;;;22.50;13.30;;;;;;;13.26;80.76;98373.16;10406200;28;20375;-49
2023/10/10 20:17:20;;;;;;;19.95;12.27;;;;;;;13.13;80.73;98354.03;10405599;28;20040;-51
2023/10/10 20:22:20;;;;;;;17.50;11.95;;;;;;;13.12;81.27;98357.53;10405506;28;20501;-50
2023/10/10 20:27:20;;;;;;;;;;;;;;;13.04;81.57;98369.69;10405578;28;20095;-47
2023/10/10 20:32:18;;;;;;;;;;;;;;;13.00;83.21;98365.38;10405088;28;20363;-47
2023/10/10 20:37:20;;;;;;;17.17;12.13;;;;;;;12.95;84.21;98364.47;10405079;28;20460;-48
2023/10/10 20:42:22;;;;;;;17.15;11.50;;;;;;;12.97;84.11;98354.94;10405076;28;20111;-48
2023/10/10 20:47:21;;;;;;;16.50;10.77;;;;;;;13.03;84.29;98365.38;10404627;28;20064;-49
2023/10/10 20:52:20;;;;;;;18.40;11.00;;;;;;;13.12;84.05;98374.91;10405350;28;20032;-49
2023/10/10 20:57:19;;;;;;;16.52;11.57;;;;;;;13.20;84.10;98373.16;10383149;28;20068;-47
2023/10/10 21:02:18;;;;;;;17.73;11.30;;;;;;;13.29;83.61;98380.09;10364121;28;20037;-48
2023/10/10 21:07:19;;;;;;;21.15;10.68;;;;;;;13.33;83.36;98379.22;10363492;28;20039;-48
2023/10/10 21:12:18;;;;;;;15.20;10.50;;;;;;;13.31;83.47;98378.34;10363392;28;20061;-51
2023/10/10 21:17:17;;;;;;;17.52;10.55;;;;;;;12.97;83.17;98331.50;10362586;28;20117;-50
2023/10/10 21:22:17;;;;;;;19.42;12.52;;;;;;;13.22;82.59;98388.78;10364022;28;20112;-50
2023/10/10 21:27:16;;;;;;;19.52;12.23;;;;;;;13.05;82.93;98384.47;10413544;28;20707;-51
2023/10/10 21:32:15;;;;;;;;;;;;;;;12.96;83.23;98373.19;10415379;28;20495;-48
2023/10/10 21:37:13;;;;;;;18.45;10.32;;;;;;;12.87;83.15;98392.28;10414826;28;19920;-48
2023/10/10 21:42:15;;;;;;;18.95;10.18;;;;;;;12.49;83.21;98359.28;10414168;28;20120;-49
2023/10/10 21:47:14;;;;;;;11.82;7.22;;;;;;;12.60;83.84;98398.34;10414624;28;20075;-49
2023/10/10 21:52:17;;;;;;;;;;;;;;;12.26;84.08;98404.31;10415973;28;20542;-51
2023/10/10 21:57:16;;;;;;;11.73;7.15;;;;;;;12.19;83.68;98396.50;10391337;28;19959;-51
2023/10/10 22:02:16;;;;;;;14.52;8.88;;;;;;;11.88;83.18;98354.78;10372672;28;20029;-51
2023/10/10 22:07:14;;;;;;;14.25;8.63;;;;;;;12.08;82.90;98394.72;10414047;28;20069;-51
2023/10/10 22:12:15;;;;;;;14.80;9.05;;;;;;;12.04;82.89;98408.59;10412467;28;20372;-51
2023/10/10 22:17:14;;;;;;;13.75;9.07;;;;;;;12.00;83.11;98411.19;10409472;28;20132;-48
2023/10/10 22:22:13;;;;;;;15.85;9.93;;;;;;;11.91;83.13;98401.59;10411202;28;20119;-48
2023/10/10 22:27:13;;;;;;;15.38;10.02;;;;;;;11.85;83.67;98402.47;10408320;28;20123;-48
2023/10/10 22:32:12;;;;;;;15.50;10.32;;;;;;;11.75;84.19;98395.47;10409717;28;20586;-48
2023/10/10 22:37:14;;;;;;;18.10;11.00;;;;;;;11.54;83.97;98369.38;10408234;28;20550;-49
2023/10/10 22:42:13;;;;;;;16.08;11.55;;;;;;;11.65;84.46;98401.50;10408840;28;20115;-49
2023/10/10 22:47:12;;;;;;;17.80;12.10;;;;;;;11.37;84.81;98377.09;10407390;28;20076;-48
2023/10/10 22:52:12;;;;;;;18.73;12.85;;;;;;;11.57;85.33;98423.97;10409213;28;20112;-48
2023/10/10 22:57:11;;;;;;;20.17;12.32;;;;;;;11.41;84.83;98410.03;10386567;28;20111;-50
2023/10/10 23:02:11;;;;;;;23.15;13.20;;;;;;;11.46;85.38;98435.19;10367238;28;20116;-48
2023/10/10 23:07:10;;;;;;;21.23;13.55;;;;;;;11.38;85.87;98425.56;10366858;28;20079;-49
2023/10/10 23:12:09;;;;;;;21.92;14.50;;;;;;;11.32;85.50;98421.22;10367207;28;20047;-48
2023/10/10 23:17:08;;;;;;;20.85;13.43;;;;;;;11.24;85.65;98420.28;10366587;28;20124;-48
2023/10/10 23:22:07;;;;;;;;;;;;;;;11.27;85.57;98422.03;10367472;28;20519;-48
2023/10/10 23:27:06;;;;;;;16.70;11.87;;;;;;;11.20;85.94;98426.34;10369238;28;19970;-48
2023/10/10 23:32:05;;;;;;;;;;;;;;;11.16;85.77;98424.56;10369388;28;20103;-51
2023/10/10 23:37:07;;;;;;;20.40;12.27;;;;;;;11.09;85.71;98425.38;10369145;28;19955;-49
2023/10/10 23:42:09;;;;;;;17.52;11.95;;;;;;;11.01;86.10;98418.41;10368901;28;20081;-48
2023/10/10 23:47:09;;;;;;;19.67;12.35;;;;;;;10.82;86.00;98406.06;10368576;28;20064;-48
2023/10/10 23:52:08;;;;;;;21.70;13.85;;;;;;;10.59;85.79;98374.75;10368855;28;20064;-49
2023/10/10 23:57:07;;;;;;;;;;;;;;;10.88;85.93;98428.69;10389817;28;20509;-50
